Time;durP1;ratioP1;P1;durP2;ratioP2;P2;SDS_P1;SDS_P2;PMS_P1;PMS_P2;Temp;Humidity;BMP_temperature;BMP_pressure;BME280_temperature;BME280_humidity;BME280_pressure;Samples;Min_cycle;Max_cycle;Signal;HPM_P1;HPM_P2
2022/01/24 00:00:42;;;;;;;5.78;3.47;;;;;;;;;;7357318;19;20827;-37
2022/01/24 00:03:12;;;;;;;7.25;4.03;;;;;;;;;;7367866;19;20223;-36
2022/01/24 00:05:47;;;;;;;6.95;4.05;;;;;;;;;;7373604;19;20163;-36
2022/01/24 00:08:20;;;;;;;9.77;5.35;;;;;;;;;;7372235;19;20134;-36
2022/01/24 00:10:52;;;;;;;10.52;4.93;;;;;;;;;;7372388;19;20155;-41
2022/01/24 00:16:21;;;;;;;10.68;4.60;;;;;;;;;;7366486;19;20139;-41
2022/01/24 00:27:02;;;;;;;10.68;4.70;;;;;;;;;;7369962;19;20131;-41
2022/01/24 00:29:31;;;;;;;8.18;3.85;;;;;;;;;;7361385;19;20134;-41
2022/01/24 00:32:01;;;;;;;9.95;4.85;;;;;;;;;;7366690;19;20138;-39
2022/01/24 00:34:32;;;;;;;8.98;5.20;;;;;;;;;;7364703;19;20139;-39
2022/01/24 00:37:09;;;;;;;8.95;5.38;;;;;;;;;;7363914;19;20127;-40
2022/01/24 00:39:39;;;;;;;9.15;5.65;;;;;;;;;;7366520;19;20762;-39
2022/01/24 00:42:21;;;;;;;8.65;5.40;;;;;;;;;;7365218;19;20142;-40
2022/01/24 00:45:05;;;;;;;9.73;5.15;;;;;;;;;;7364402;19;20207;-40
2022/01/24 00:47:50;;;;;;;7.53;4.15;;;;;;;;;;7372227;19;20135;-40
2022/01/24 00:53:18;;;;;;;7.97;5.25;;;;;;;;;;7369598;19;21315;-41
2022/01/24 00:55:51;;;;;;;11.23;5.93;;;;;;;;;;7370223;19;20642;-40
2022/01/24 00:58:20;;;;;;;11.00;5.90;;;;;;;;;;7359203;19;20854;-41
2022/01/24 01:00:50;;;;;;;12.18;6.32;;;;;;;;;;7355248;19;20889;-40
2022/01/24 01:03:24;;;;;;;13.52;7.32;;;;;;;;;;7358643;19;20131;-41
2022/01/24 01:06:04;;;;;;;9.43;6.40;;;;;;;;;;7362157;19;20131;-40
2022/01/24 01:19:40;;;;;;;9.57;5.85;;;;;;;;;;7365310;19;20131;-41
2022/01/24 01:22:09;;;;;;;8.30;5.70;;;;;;;;;;7368004;19;20135;-40
2022/01/24 01:24:50;;;;;;;9.90;6.15;;;;;;;;;;7362555;19;20151;-40
2022/01/24 01:27:24;;;;;;;11.32;5.40;;;;;;;;;;7364780;19;20159;-40
2022/01/24 01:30:00;;;;;;;9.55;5.78;;;;;;;;;;7368793;19;20612;-40
2022/01/24 01:32:52;;;;;;;8.95;5.63;;;;;;;;;;7363369;19;20147;-42
2022/01/24 01:35:42;;;;;;;9.73;6.30;;;;;;;;;;7367878;19;20123;-40
2022/01/24 01:55:08;;;;;;;9.90;6.10;;;;;;;;;;7364653;19;20139;-41
2022/01/24 01:57:41;;;;;;;8.80;6.05;;;;;;;;;;7365693;19;20491;-40
2022/01/24 02:00:16;;;;;;;10.35;6.40;;;;;;;;;;7370287;19;20433;-40
2022/01/24 02:02:46;;;;;;;11.60;6.97;;;;;;;;;;7354550;19;20314;-40
2022/01/24 02:05:16;;;;;;;11.90;6.90;;;;;;;;;;7374889;19;20518;-40
2022/01/24 02:07:52;;;;;;;12.73;5.75;;;;;;;;;;7361463;19;20861;-40
2022/01/24 02:10:25;;;;;;;10.27;6.18;;;;;;;;;;7358828;19;20138;-40
2022/01/24 02:12:57;;;;;;;10.30;6.40;;;;;;;;;;7359081;19;20505;-42
2022/01/24 02:15:40;;;;;;;9.55;6.82;;;;;;;;;;7360694;19;20123;-40
2022/01/24 02:18:25;;;;;;;15.65;7.45;;;;;;;;;;7365053;19;20161;-40
2022/01/24 02:23:51;;;;;;;11.18;6.10;;;;;;;;;;7366974;19;20446;-40
2022/01/24 02:26:23;;;;;;;9.65;6.45;;;;;;;;;;7375361;19;20126;-40
2022/01/24 02:31:49;;;;;;;12.43;5.68;;;;;;;;;;7371260;19;20147;-40
2022/01/24 02:34:27;;;;;;;11.30;6.25;;;;;;;;;;7363923;19;20135;-40
2022/01/24 02:36:58;;;;;;;10.50;6.55;;;;;;;;;;7367349;19;20139;-40
2022/01/24 02:39:48;;;;;;;11.48;6.80;;;;;;;;;;7369096;19;20206;-40
2022/01/24 02:50:40;;;;;;;11.27;6.65;;;;;;;;;;7372328;19;20143;-40
2022/01/24 02:53:14;;;;;;;9.95;6.03;;;;;;;;;;7365049;19;20967;-40
2022/01/24 02:55:47;;;;;;;10.48;5.60;;;;;;;;;;7364124;19;20127;-41
2022/01/24 02:58:19;;;;;;;11.70;6.90;;;;;;;;;;7360492;19;20492;-41
2022/01/24 03:00:52;;;;;;;10.77;6.30;;;;;;;;;;7359963;19;20457;-41
2022/01/24 03:03:22;;;;;;;10.88;6.13;;;;;;;;;;7362838;19;20143;-41
2022/01/24 03:05:52;;;;;;;11.75;6.40;;;;;;;;;;7368456;19;20123;-41
2022/01/24 03:08:24;;;;;;;12.02;6.32;;;;;;;;;;7366851;19;20171;-41
2022/01/24 03:10:58;;;;;;;13.43;7.18;;;;;;;;;;7365218;19;20130;-41
2022/01/24 03:13:37;;;;;;;10.05;6.20;;;;;;;;;;7358927;19;20146;-42
2022/01/24 03:16:08;;;;;;;10.13;5.88;;;;;;;;;;7366515;19;20787;-41
2022/01/24 03:18:40;;;;;;;11.45;6.82;;;;;;;;;;7358343;19;20135;-41
2022/01/24 03:21:10;;;;;;;10.57;6.07;;;;;;;;;;7361174;19;20165;-41
2022/01/24 03:23:40;;;;;;;10.45;4.85;;;;;;;;;;7369033;19;20131;-41
2022/01/24 03:26:12;;;;;;;9.85;5.80;;;;;;;;;;7366318;19;20139;-41
2022/01/24 03:28:42;;;;;;;8.73;5.45;;;;;;;;;;7367594;19;20141;-39
2022/01/24 03:31:11;;;;;;;9.60;5.80;;;;;;;;;;7361973;19;20128;-42
2022/01/24 03:33:41;;;;;;;11.23;5.88;;;;;;;;;;7364638;19;20139;-41
2022/01/24 03:36:11;;;;;;;11.38;6.88;;;;;;;;;;7368994;19;20215;-41
2022/01/24 03:38:42;;;;;;;12.80;6.72;;;;;;;;;;7367996;19;20127;-41
2022/01/24 03:41:15;;;;;;;12.18;6.15;;;;;;;;;;7370948;19;20143;-41
2022/01/24 03:43:46;;;;;;;12.35;6.40;;;;;;;;;;7365042;19;20703;-41
2022/01/24 03:46:26;;;;;;;10.73;5.95;;;;;;;;;;7365060;19;20127;-41
2022/01/24 03:49:08;;;;;;;10.02;5.80;;;;;;;;;;7364159;19;20687;-41
2022/01/24 03:51:37;;;;;;;11.93;6.93;;;;;;;;;;7363231;19;20140;-41
2022/01/24 03:54:07;;;;;;;10.98;6.00;;;;;;;;;;7358336;19;20486;-41
2022/01/24 03:56:39;;;;;;;12.05;6.82;;;;;;;;;;7367772;19;20161;-41
2022/01/24 03:59:09;;;;;;;10.85;7.15;;;;;;;;;;7358314;19;20135;-41
2022/01/24 04:01:38;;;;;;;14.48;8.00;;;;;;;;;;7349128;19;20612;-41
2022/01/24 04:04:08;;;;;;;10.90;6.78;;;;;;;;;;7358755;19;20203;-41
2022/01/24 04:06:38;;;;;;;9.23;7.00;;;;;;;;;;7368744;19;20135;-41
2022/01/24 04:09:07;;;;;;;9.68;6.70;;;;;;;;;;7365350;19;20574;-41
2022/01/24 04:11:42;;;;;;;13.00;7.32;;;;;;;;;;7371365;19;20131;-41
2022/01/24 04:14:28;;;;;;;13.50;6.47;;;;;;;;;;7365825;19;20160;-41
2022/01/24 04:17:19;;;;;;;12.90;7.50;;;;;;;;;;7360182;19;20140;-41
2022/01/24 04:22:35;;;;;;;9.27;6.35;;;;;;;;;;7365034;19;20139;-41
2022/01/24 04:25:14;;;;;;;13.30;7.07;;;;;;;;;;7369554;19;20139;-41
2022/01/24 04:27:46;;;;;;;9.20;6.53;;;;;;;;;;7356923;19;20150;-41
2022/01/24 04:30:15;;;;;;;15.90;7.63;;;;;;;;;;7362239;19;20878;-36
2022/01/24 04:32:45;;;;;;;10.68;7.03;;;;;;;;;;7370743;19;20606;-36
2022/01/24 04:35:16;;;;;;;13.93;8.02;;;;;;;;;;7366466;19;20127;-36
2022/01/24 04:37:46;;;;;;;11.57;6.97;;;;;;;;;;7372444;19;20128;-36
2022/01/24 04:40:15;;;;;;;9.70;7.68;;;;;;;;;;7367866;19;20934;-36
2022/01/24 04:42:55;;;;;;;13.70;8.77;;;;;;;;;;7369399;19;20749;-36
2022/01/24 04:45:49;;;;;;;12.05;7.55;;;;;;;;;;7368031;19;20151;-36
2022/01/24 04:51:08;;;;;;;13.10;8.00;;;;;;;;;;7368046;19;20628;-36
2022/01/24 04:54:25;;;;;;;14.75;7.18;;;;;;;;;;7368129;19;20712;-36
2022/01/24 04:56:45;;;;;;;11.40;6.97;;;;;;;;;;7377228;19;20162;-36
2022/01/24 04:59:18;;;;;;;10.98;7.40;;;;;;;;;;7368949;19;20601;-35
2022/01/24 05:01:47;;;;;;;13.68;7.90;;;;;;;;;;7347449;19;20158;-36
2022/01/24 05:04:19;;;;;;;13.68;7.97;;;;;;;;;;7371212;19;20644;-36
2022/01/24 05:06:49;;;;;;;11.55;6.60;;;;;;;;;;7369784;19;20633;-36
2022/01/24 05:09:20;;;;;;;12.50;7.05;;;;;;;;;;7349965;19;20764;-36
2022/01/24 05:11:59;;;;;;;13.20;7.47;;;;;;;;;;7362988;19;20131;-36
2022/01/24 05:25:22;;;;;;;12.68;7.60;;;;;;;;;;7355794;19;20131;-36
2022/01/24 05:27:51;;;;;;;15.00;8.95;;;;;;;;;;7340427;19;20573;-36
2022/01/24 05:30:24;;;;;;;17.25;8.15;;;;;;;;;;7352760;19;20613;-41
2022/01/24 05:32:58;;;;;;;14.18;7.28;;;;;;;;;;7345373;19;20131;-41
2022/01/24 05:35:30;;;;;;;13.20;7.97;;;;;;;;;;7367990;19;20131;-41
2022/01/24 05:38:02;;;;;;;15.85;7.75;;;;;;;;;;7371845;19;20174;-41
2022/01/24 05:40:34;;;;;;;19.02;9.20;;;;;;;;;;7371636;19;20127;-41
2022/01/24 05:43:03;;;;;;;11.25;8.02;;;;;;;;;;7370795;19;20135;-42
2022/01/24 05:45:36;;;;;;;13.80;8.30;;;;;;;;;;7372173;19;20630;-41
2022/01/24 05:48:08;;;;;;;15.60;8.57;;;;;;;;;;7377836;19;20491;-41
2022/01/24 05:50:43;;;;;;;12.90;8.02;;;;;;;;;;7373797;19;20613;-41
2022/01/24 05:53:15;;;;;;;16.50;9.55;;;;;;;;;;7370827;19;20143;-41
2022/01/24 05:55:49;;;;;;;16.83;9.93;;;;;;;;;;7372519;19;20130;-42
2022/01/24 05:58:19;;;;;;;16.75;10.13;;;;;;;;;;7367301;19;20128;-41
2022/01/24 06:00:53;;;;;;;13.73;8.25;;;;;;;;;;7366938;19;20131;-40
2022/01/24 06:03:23;;;;;;;17.38;9.10;;;;;;;;;;7372819;19;20131;-41
2022/01/24 06:05:55;;;;;;;14.30;8.45;;;;;;;;;;7371197;19;20123;-41
2022/01/24 06:08:25;;;;;;;15.00;8.55;;;;;;;;;;7372661;19;20127;-41
2022/01/24 06:10:58;;;;;;;13.00;9.18;;;;;;;;;;7371144;19;20178;-41
2022/01/24 06:13:28;;;;;;;14.90;8.52;;;;;;;;;;7370616;19;21010;-41
2022/01/24 06:16:00;;;;;;;14.30;8.50;;;;;;;;;;7376864;19;20132;-41
2022/01/24 06:18:30;;;;;;;17.02;8.60;;;;;;;;;;7370152;19;20146;-41
2022/01/24 06:21:04;;;;;;;15.25;9.30;;;;;;;;;;7375102;19;20149;-41
2022/01/24 06:23:34;;;;;;;14.57;9.27;;;;;;;;;;7374677;19;20471;-41
2022/01/24 06:26:04;;;;;;;13.82;8.55;;;;;;;;;;7374391;19;20138;-41
2022/01/24 06:28:33;;;;;;;16.27;9.20;;;;;;;;;;7363206;19;20246;-41
2022/01/24 06:31:08;;;;;;;12.18;8.63;;;;;;;;;;7372871;19;20581;-41
2022/01/24 06:33:38;;;;;;;15.30;9.20;;;;;;;;;;7361608;19;20131;-41
2022/01/24 06:36:10;;;;;;;17.65;9.65;;;;;;;;;;7359373;19;20492;-41
2022/01/24 06:38:39;;;;;;;17.25;8.55;;;;;;;;;;7354156;19;20223;-43
2022/01/24 06:41:09;;;;;;;15.73;8.98;;;;;;;;;;7357836;19;20131;-41
2022/01/24 06:43:41;;;;;;;14.98;9.27;;;;;;;;;;7361893;19;20194;-41
2022/01/24 06:46:16;;;;;;;19.05;9.73;;;;;;;;;;7365150;19;20146;-42
2022/01/24 06:48:45;;;;;;;18.42;9.30;;;;;;;;;;7372376;19;20134;-41
2022/01/24 06:51:15;;;;;;;20.30;9.93;;;;;;;;;;7374238;19;20136;-41
2022/01/24 06:53:47;;;;;;;24.90;14.02;;;;;;;;;;7367503;19;20131;-41
2022/01/24 06:56:20;;;;;;;23.02;14.98;;;;;;;;;;7372599;19;20598;-41
2022/01/24 06:58:52;;;;;;;31.55;16.15;;;;;;;;;;7369075;19;22097;-41
2022/01/24 07:01:24;;;;;;;26.50;15.02;;;;;;;;;;7362333;19;20646;-41
2022/01/24 07:03:54;;;;;;;30.88;18.40;;;;;;;;;;7367545;19;20131;-41
2022/01/24 07:06:23;;;;;;;25.80;14.48;;;;;;;;;;7373128;19;20622;-41
2022/01/24 07:08:53;;;;;;;33.22;20.55;;;;;;;;;;7373388;19;21630;-41
2022/01/24 07:11:23;;;;;;;29.90;19.00;;;;;;;;;;7366079;19;20131;-41
2022/01/24 07:13:55;;;;;;;28.45;17.10;;;;;;;;;;7370251;19;20128;-42
2022/01/24 07:16:38;;;;;;;29.20;18.17;;;;;;;;;;7373545;19;20138;-41
2022/01/24 07:19:08;;;;;;;31.38;19.67;;;;;;;;;;7367109;19;20149;-41
2022/01/24 07:21:37;;;;;;;23.98;14.50;;;;;;;;;;7370866;19;20686;-41
2022/01/24 07:24:07;;;;;;;21.45;14.00;;;;;;;;;;7374481;19;20992;-42
2022/01/24 07:26:37;;;;;;;19.50;12.02;;;;;;;;;;7371949;19;20215;-41
2022/01/24 07:29:07;;;;;;;15.02;9.40;;;;;;;;;;7371838;19;20602;-41
2022/01/24 07:31:39;;;;;;;21.58;13.18;;;;;;;;;;7367206;19;21587;-41
2022/01/24 07:34:09;;;;;;;28.23;17.42;;;;;;;;;;7367377;19;20139;-41
2022/01/24 07:36:38;;;;;;;35.78;21.23;;;;;;;;;;7366432;19;20863;-41
2022/01/24 07:39:08;;;;;;;24.10;15.00;;;;;;;;;;7369880;19;20167;-41
2022/01/24 07:41:43;;;;;;;32.08;18.55;;;;;;;;;;7372496;19;20135;-41
2022/01/24 07:44:20;;;;;;;19.67;12.77;;;;;;;;;;7360976;19;20162;-41
2022/01/24 07:46:52;;;;;;;15.75;10.15;;;;;;;;;;7368045;19;20136;-42
2022/01/24 07:49:22;;;;;;;17.40;11.15;;;;;;;;;;7369075;19;20158;-42
2022/01/24 07:51:52;;;;;;;18.38;10.50;;;;;;;;;;7348452;19;20130;-43
2022/01/24 07:54:21;;;;;;;18.02;10.50;;;;;;;;;;7368695;19;20564;-41
2022/01/24 07:56:56;;;;;;;17.48;11.57;;;;;;;;;;7370620;19;20141;-41
2022/01/24 07:59:25;;;;;;;17.75;10.32;;;;;;;;;;7372899;19;20159;-41
2022/01/24 08:02:02;;;;;;;14.85;10.10;;;;;;;;;;7363911;19;20159;-41
2022/01/24 08:04:36;;;;;;;18.98;9.60;;;;;;;;;;7366554;19;20135;-41
2022/01/24 08:07:06;;;;;;;15.55;10.25;;;;;;;;;;7375432;19;20136;-41
2022/01/24 08:09:36;;;;;;;18.75;10.27;;;;;;;;;;7377808;19;20135;-41
2022/01/24 08:12:09;;;;;;;15.82;10.70;;;;;;;;;;7372757;19;20139;-41
2022/01/24 08:14:38;;;;;;;14.13;9.50;;;;;;;;;;7374265;19;20130;-41
2022/01/24 08:17:10;;;;;;;12.57;9.10;;;;;;;;;;7371881;19;20491;-41
2022/01/24 08:19:40;;;;;;;15.80;9.90;;;;;;;;;;7375028;19;20134;-42
2022/01/24 08:22:13;;;;;;;13.18;9.23;;;;;;;;;;7369656;19;20135;-41
2022/01/24 08:24:44;;;;;;;14.70;8.88;;;;;;;;;;7378988;19;20496;-41
2022/01/24 08:27:15;;;;;;;15.65;10.18;;;;;;;;;;7374007;19;20135;-41
2022/01/24 08:29:45;;;;;;;14.57;9.20;;;;;;;;;;7376702;19;20132;-41
2022/01/24 08:32:23;;;;;;;10.80;8.45;;;;;;;;;;7375641;19;24131;-41
2022/01/24 08:34:53;;;;;;;13.95;9.02;;;;;;;;;;7362816;19;20131;-41
2022/01/24 08:37:23;;;;;;;13.73;9.38;;;;;;;;;;7373724;19;20128;-41
2022/01/24 08:39:53;;;;;;;14.70;9.80;;;;;;;;;;7359932;19;20193;-44
2022/01/24 08:42:29;;;;;;;15.30;10.18;;;;;;;;;;7356388;19;20135;-44
2022/01/24 08:47:44;;;;;;;16.13;10.48;;;;;;;;;;7364110;19;20169;-44
2022/01/24 08:50:13;;;;;;;15.13;9.70;;;;;;;;;;7368605;19;20144;-45
2022/01/24 08:52:43;;;;;;;12.50;8.88;;;;;;;;;;7361238;19;20148;-45
2022/01/24 08:55:13;;;;;;;13.55;9.88;;;;;;;;;;7364475;19;20606;-46
2022/01/24 08:57:45;;;;;;;11.98;9.35;;;;;;;;;;7352095;19;20231;-42
2022/01/24 09:00:16;;;;;;;13.40;8.95;;;;;;;;;;7351540;19;20148;-43
2022/01/24 09:02:48;;;;;;;14.63;9.52;;;;;;;;;;7355084;19;20158;-42
2022/01/24 09:05:19;;;;;;;16.20;11.20;;;;;;;;;;7364328;19;20123;-42
2022/01/24 09:07:48;;;;;;;14.60;9.60;;;;;;;;;;7375455;19;20692;-43
2022/01/24 09:10:18;;;;;;;12.63;8.10;;;;;;;;;;7376563;19;20153;-43
2022/01/24 09:12:52;;;;;;;13.15;9.13;;;;;;;;;;7361726;19;20142;-43
2022/01/24 09:15:22;;;;;;;13.75;10.48;;;;;;;;;;7352687;19;20390;-43
2022/01/24 09:17:54;;;;;;;16.27;10.10;;;5.70;59.20;;;;;;7342429;19;20641;-43
2022/01/24 09:20:24;;;;;;;15.52;9.45;;;9.20;59.00;;;;;;7369728;19;21506;-44
2022/01/24 09:22:54;;;;;;;11.23;9.57;;;10.40;53.20;;;;;;7365926;19;20127;-43
2022/01/24 09:25:26;;;;;;;12.10;9.63;;;;;;;;;;7366053;19;20413;-43
2022/01/24 09:27:56;;;;;;;11.73;8.80;;;;;;;;;;7372808;19;20376;-43
2022/01/24 09:30:27;;;;;;;10.30;8.27;;;11.20;51.30;;;;;;7372251;19;20452;-44
2022/01/24 09:33:02;;;;;;;10.27;8.67;;;14.30;44.80;;;;;;7364664;19;20757;-44
2022/01/24 09:35:32;;;;;;;11.50;8.63;;;;;;;;;;7371355;19;20416;-44
2022/01/24 09:38:05;;;;;;;12.90;9.93;;;;;;;;;;7372563;19;20413;-44
2022/01/24 09:40:35;;;;;;;13.10;7.93;;;14.50;44.60;;;;;;7374370;19;20413;-45
2022/01/24 09:43:07;;;;;;;11.87;9.10;;;15.80;41.10;;;;;;7373364;19;20429;-45
2022/01/24 09:45:37;;;;;;;12.43;8.73;;;15.30;41.00;;;;;;7375147;19;20784;-46
2022/01/24 09:48:10;;;;;;;13.77;8.93;;;14.90;42.40;;;;;;7372083;19;20368;-47
2022/01/24 09:50:40;;;;;;;11.87;8.30;;;13.70;44.00;;;;;;7369817;19;20396;-47
2022/01/24 09:53:09;;;;;;;13.13;7.40;;;14.00;43.00;;;;;;7376210;19;20384;-47
2022/01/24 09:55:39;;;;;;;7.77;6.93;;;;;;;;;;7375382;19;20384;-47
2022/01/24 09:58:09;;;;;;;11.80;7.63;;;14.80;43.00;;;;;;7371427;19;20420;-48
2022/01/24 10:00:40;;;;;;;9.60;7.50;;;14.70;40.70;;;;;;7367384;19;20384;-47
2022/01/24 10:03:15;;;;;;;8.17;7.47;;;;;;;;;;7366327;19;20375;-47
2022/01/24 10:05:45;;;;;;;7.23;6.47;;;;;;;;;;7372465;19;20372;-47
2022/01/24 10:08:17;;;;;;;8.30;7.00;;;;;;;;;;7372830;19;20391;-47
2022/01/24 10:10:51;;;;;;;6.63;6.00;;;;;;;;;;7367270;19;20372;-45
2022/01/24 10:16:29;;;;;;;5.90;5.40;;;;;;;;;;7367763;19;20735;-44
2022/01/24 10:19:05;;;;;;;7.70;6.30;;;;;;;;;;7373842;19;21050;-44
2022/01/24 10:21:40;;;;;;;6.80;5.93;;;18.30;34.50;;;;;;7369497;19;20391;-44
2022/01/24 10:24:10;;;;;;;7.57;5.43;;;11.60;43.60;;;;;;7372177;19;20368;-44
2022/01/24 10:26:41;;;;;;;7.20;6.13;;;10.30;46.70;;;;;;7373057;19;20845;-44
2022/01/24 10:29:15;;;;;;;7.50;5.47;;;9.80;49.50;;;;;;7373321;19;20738;-44
2022/01/24 10:31:49;;;;;;;5.10;4.60;;;;;;;;;;7375328;19;20751;-44
2022/01/24 10:34:27;;;;;;;5.80;4.60;;;;;;;;;;7371999;19;20400;-44
2022/01/24 10:36:57;;;;;;;5.23;4.73;;;;;;;;;;7378204;19;20768;-44
2022/01/24 10:39:34;;;;;;;5.73;5.03;;;;;;;;;;7372020;19;20367;-44
2022/01/24 10:42:31;;;;;;;6.70;5.20;;;10.80;48.30;;;;;;7370891;19;20392;-44
2022/01/24 10:45:03;;;;;;;5.97;5.10;;;15.70;39.10;;;;;;7373108;19;20375;-44
2022/01/24 10:47:34;;;;;;;4.90;4.20;;;17.00;37.60;;;;;;7369429;19;20360;-44
2022/01/24 10:50:08;;;;;;;6.53;5.27;;;18.60;36.00;;;;;;7372296;19;20769;-47
2022/01/24 10:52:38;;;;;;;5.17;4.67;;;;;;;;;;7374640;19;20360;-47
2022/01/24 10:55:17;;;;;;;5.13;4.63;;;20.10;32.90;;;;;;7368805;19;21024;-46
2022/01/24 10:57:47;;;;;;;4.03;3.43;;;;;;;;;;7369802;19;20472;-47
2022/01/24 11:00:18;;;;;;;4.83;4.20;;;;;;;;;;7372844;19;20902;-47
2022/01/24 11:02:52;;;;;;;5.70;4.10;;;20.90;30.70;;;;;;7359235;19;20498;-46
2022/01/24 11:05:28;;;;;;;5.20;4.70;;;17.50;33.80;;;;;;7370262;19;20379;-46
2022/01/24 11:08:00;;;;;;;5.23;4.83;;;;;;;;;;7371179;19;20376;-47
2022/01/24 11:10:31;;;;;;;7.40;5.03;;;;;;;;;;7375608;19;20409;-46
2022/01/24 11:13:03;;;;;;;4.63;4.23;;;;;;;;;;7373702;19;20414;-46
2022/01/24 11:15:32;;;;;;;4.43;3.73;;;17.90;33.90;;;;;;7371629;19;20387;-47
2022/01/24 11:18:02;;;;;;;4.57;4.17;;;;;;;;;;7373493;19;20391;-47
2022/01/24 11:20:36;;;;;;;4.77;4.37;;;;;;;;;;7369635;19;20361;-46
2022/01/24 11:23:09;;;;;;;4.90;4.40;;;19.30;31.90;;;;;;7369683;19;20371;-47
2022/01/24 11:25:43;;;;;;;4.07;3.67;;;;;;;;;;7373133;19;20443;-47
2022/01/24 11:28:13;;;;;;;4.87;4.00;;;;;;;;;;7365819;19;21020;-47
2022/01/24 11:30:45;;;;;;;3.90;3.60;;;;;;;;;;7367200;19;20373;-48
2022/01/24 11:33:15;;;;;;;5.70;3.90;;;;;;;;;;7368299;19;20365;-48
2022/01/24 11:35:51;;;;;;;4.80;4.40;;;;;;;;;;7370957;19;20391;-47
2022/01/24 11:38:31;;;;;;;5.50;4.67;;;;;;;;;;7369215;19;21244;-48
2022/01/24 11:41:04;;;;;;;5.20;4.70;;;;;;;;;;7372181;19;20372;-47
2022/01/24 11:43:37;;;;;;;4.67;4.13;;;18.80;31.40;;;;;;7374253;19;20376;-47
2022/01/24 11:46:09;;;;;;;6.60;4.10;;;;;;;;;;7368792;19;20797;-48
2022/01/24 11:48:39;;;;;;;4.83;4.20;;;;;;;;;;7363521;19;21468;-46
2022/01/24 11:51:12;;;;;;;4.50;4.10;;;;;;;;;;7370955;19;20669;-46
2022/01/24 11:53:46;;;;;;;4.20;3.80;;;;;;;;;;7370171;19;20938;-47
2022/01/24 11:56:20;;;;;;;4.20;3.80;;;;;;;;;;7373563;19;21441;-46
2022/01/24 11:58:50;;;;;;;7.17;4.63;;;;;;;;;;7342656;19;20460;-47
2022/01/24 12:01:39;;;;;;;16.00;6.40;;;;;;;;;;7358696;19;20899;-46
2022/01/24 12:04:09;;;;;;;5.67;5.13;;;;;;;;;;7369081;19;21024;-42
2022/01/24 12:06:54;;;;;;;5.40;4.90;;;;;;;;;;7368205;19;20375;-42
2022/01/24 12:09:28;;;;;;;5.27;4.77;;;;;;;;;;7365408;19;20364;-42
2022/01/24 12:11:58;;;;;;;6.40;5.80;;;;;;;;;;7370021;19;20395;-42
2022/01/24 12:14:40;;;;;;;7.60;6.70;;;;;;;;;;7360960;19;20367;-41
2022/01/24 12:17:11;;;;;;;6.23;5.63;;;;;;;;;;7365958;19;20516;-41
2022/01/24 12:19:40;;;;;;;6.30;5.07;;;;;;;;;;7369460;19;20387;-42
2022/01/24 12:22:28;;;;;;;5.80;5.30;;;;;;;;;;7369663;19;20380;-44
2022/01/24 12:25:00;;;;;;;7.30;5.13;;;;;;;;;;7364613;19;20391;-43
2022/01/24 12:27:30;;;;;;;6.13;4.20;;;;;;;;;;7367478;19;20379;-43
2022/01/24 12:29:59;;;;;;;6.50;4.60;;;;;;;;;;7364925;19;20371;-43
2022/01/24 12:32:30;;;;;;;7.00;5.27;;;;;;;;;;7360561;19;20380;-44
2022/01/24 12:35:03;;;;;;;6.17;5.20;;;;;;;;;;7359943;19;20380;-46
2022/01/24 12:37:34;;;;;;;5.37;4.83;;;;;;;;;;7357958;19;20370;-46
2022/01/24 12:40:09;;;;;;;5.77;4.70;;;;;;;;;;7373690;19;20696;-46
2022/01/24 12:42:49;;;;;;;5.07;3.87;;;;;;;;;;7374530;19;20519;-45
2022/01/24 12:48:08;;;;;;;4.23;3.93;;;;;;;;;;7374338;19;21241;-45
2022/01/24 12:50:38;;;;;;;4.40;4.00;;;;;;;;;;7363326;19;20416;-45
2022/01/24 12:53:14;;;;;;;7.23;5.10;;;19.50;31.10;;;;;;7369647;19;20425;-43
2022/01/24 12:55:58;;;;;;;6.23;4.03;;;11.40;44.80;;;;;;7367046;19;20441;-43
2022/01/24 12:58:36;;;;;;;8.00;4.47;;;11.20;45.70;;;;;;7365581;19;20364;-45
2022/01/24 13:01:20;;;;;;;6.10;3.77;;;10.90;46.10;;;;;;7358973;19;20461;-45
2022/01/24 13:03:57;;;;;;;5.10;4.10;;;11.00;46.50;;;;;;7376166;19;20372;-43
2022/01/24 13:06:28;;;;;;;5.03;3.90;;;11.00;46.30;;;;;;7377178;19;20372;-44
2022/01/24 13:09:00;;;;;;;5.03;3.67;;;10.90;46.60;;;;;;7373292;19;20391;-43
2022/01/24 13:11:33;;;;;;;4.67;3.93;;;10.70;46.70;;;;;;7362833;19;20372;-43
2022/01/24 13:14:11;;;;;;;5.17;4.07;;;10.50;47.10;;;;;;7362099;19;20719;-44
2022/01/24 13:22:14;;;;;;;5.10;3.47;;;;;;;;;;7366848;19;20373;-44
2022/01/24 13:25:00;;;;;;;5.53;3.60;;;;;;;;;;7363551;19;20436;-43
2022/01/24 13:27:44;;;;;;;4.97;3.87;;;10.20;48.40;;;;;;7368894;19;20387;-43
2022/01/24 13:30:15;;;;;;;5.47;3.23;;;;;;;;;;7370644;19;20376;-43
2022/01/24 13:32:47;;;;;;;7.43;4.03;;;9.90;50.60;;;;;;7368581;19;20372;-43
2022/01/24 13:35:26;;;;;;;3.63;3.13;;;9.90;50.70;;;;;;7365576;19;20459;-43
2022/01/24 13:38:01;;;;;;;5.97;3.33;;;9.80;51.00;;;;;;7362265;19;20502;-42
2022/01/24 13:40:36;;;;;;;4.43;3.63;;;9.60;50.90;;;;;;7370108;19;20788;-42
2022/01/24 13:43:13;;;;;;;7.70;4.32;;;9.40;51.50;;;;;;7371672;19;21001;-42
2022/01/24 13:45:45;;;;;;;4.90;3.83;;;9.30;52.00;;;;;;7364717;19;20639;-43
2022/01/24 13:48:24;;;;;;;4.33;3.60;;;9.30;52.10;;;;;;7365497;19;20136;-41
2022/01/24 13:50:55;;;;;;;4.85;4.35;;;9.50;52.00;;;;;;7364051;19;21010;-42
2022/01/24 13:53:33;;;;;;;7.22;3.28;;;9.40;51.90;;;;;;7376796;19;20143;-41
2022/01/24 13:56:03;;;;;;;8.83;3.70;;;9.30;51.90;;;;;;7375712;19;20131;-41
2022/01/24 13:58:35;;;;;;;5.88;3.70;;;9.40;51.70;;;;;;7377177;19;20913;-41
2022/01/24 14:01:07;;;;;;;5.43;3.45;;;9.40;52.10;;;;;;7364582;19;20157;-41
2022/01/24 14:03:37;;;;;;;5.63;3.08;;;9.30;52.30;;;;;;7364920;19;20630;-42
2022/01/24 14:06:20;;;;;;;5.47;3.42;;;9.30;52.10;;;;;;7371031;19;20139;-42
2022/01/24 14:09:03;;;;;;;4.90;3.50;;;9.30;52.20;;;;;;7366665;19;20139;-43
2022/01/24 14:11:32;;;;;;;3.93;3.37;;;9.20;52.60;;;;;;7366327;19;20150;-41
2022/01/24 14:14:10;;;;;;;5.03;3.45;;;9.20;53.00;;;;;;7365131;19;20905;-42
2022/01/24 14:16:47;;;;;;;8.43;3.10;;;9.10;53.00;;;;;;7370157;19;20147;-42
2022/01/24 14:19:16;;;;;;;6.22;3.97;;;9.20;52.90;;;;;;7364254;19;20426;-42
2022/01/24 14:22:01;;;;;;;4.10;3.17;;;;;;;;;;7353261;19;20512;-41
2022/01/24 14:24:44;;;;;;;5.03;3.00;;;;;;;;;;7372519;19;20131;-44
2022/01/24 14:27:14;;;;;;;4.05;3.10;;;;;;;;;;7371630;19;20376;-41
2022/01/24 14:29:49;;;;;;;3.75;2.88;;;;;;;;;;7365128;19;20600;-42
2022/01/24 14:32:27;;;;;;;4.32;3.30;;;;;;;;;;7370580;19;20547;-41
2022/01/24 14:35:06;;;;;;;6.65;3.30;;;;;;;;;;7367636;19;20636;-42
2022/01/24 14:37:54;;;;;;;4.97;3.08;;;;;;;;;;7366697;19;20123;-42
2022/01/24 14:40:45;;;;;;;17.48;3.85;;;;;;;;;;7370050;19;20134;-42
2022/01/24 14:46:04;;;;;;;3.40;3.10;;;;;;;;;;7374479;19;20572;-42
2022/01/24 14:48:34;;;;;;;3.50;2.72;;;;;;;;;;7371561;19;20146;-42
2022/01/24 14:51:03;;;;;;;8.40;4.47;;;;;;;;;;7368728;19;20640;-41
2022/01/24 14:53:34;;;;;;;11.63;3.53;;;;;;;;;;7374024;19;20550;-41
2022/01/24 14:56:07;;;;;;;23.77;4.50;;;;;;;;;;7373521;19;20136;-42
2022/01/24 14:58:36;;;;;;;4.30;3.05;;;;;;;;;;7368356;19;20148;-42
2022/01/24 15:01:09;;;;;;;7.93;3.05;;;;;;;;;;7359707;19;20170;-43
2022/01/24 15:03:40;;;;;;;11.05;3.75;;;;;;;;;;7359170;19;20606;-42
2022/01/24 15:06:10;;;;;;;9.18;3.05;;;;;;;;;;7358483;19;20124;-42
2022/01/24 15:08:41;;;;;;;5.38;3.20;;;;;;;;;;7373500;19;20131;-42
2022/01/24 15:11:16;;;;;;;5.85;2.97;;;;;;;;;;7363525;19;20139;-42
2022/01/24 15:13:52;;;;;;;4.53;3.20;;;;;;;;;;7364654;19;20768;-42
2022/01/24 15:16:32;;;;;;;5.05;3.05;;;;;;;;;;7363040;19;20159;-42
2022/01/24 15:27:02;;;;;;;7.13;4.95;;;7.50;58.80;;;;;;7363202;19;20508;-42
2022/01/24 15:29:33;;;;;;;6.80;3.95;;;7.30;59.70;;;;;;7363032;19;20767;-43
2022/01/24 15:32:09;;;;;;;5.57;3.78;;;7.20;60.20;;;;;;7360904;19;20147;-42
2022/01/24 15:34:42;;;;;;;4.22;3.20;;;7.10;60.50;;;;;;7358290;19;20520;-42
2022/01/24 15:37:11;;;;;;;3.55;3.00;;;7.00;60.90;;;;;;7369979;19;20161;-43
2022/01/24 15:39:41;;;;;;;5.40;3.42;;;6.90;61.00;;;;;;7359902;19;20476;-41
2022/01/24 15:42:16;;;;;;;6.38;3.35;;;6.80;61.60;;;;;;7361213;19;20155;-42
2022/01/24 15:47:36;;;;;;;4.07;3.00;;;6.60;62.70;;;;;;7361469;19;20166;-42
2022/01/24 15:50:14;;;;;;;4.68;2.97;;;6.40;63.20;;;;;;7363379;19;20630;-42
2022/01/24 15:52:45;;;;;;;4.53;2.33;;;6.30;63.80;;;;;;7370998;19;20666;-41
2022/01/24 15:55:17;;;;;;;7.88;3.60;;;6.10;64.60;;;;;;7374996;19;20226;-41
2022/01/24 15:57:49;;;;;;;3.92;3.00;;;6.00;65.00;;;;;;7373941;19;20131;-41
2022/01/24 16:00:21;;;;;;;2.80;2.47;;;5.90;65.60;;;;;;7365326;19;20136;-37
2022/01/24 16:03:00;;;;;;;6.28;3.35;;;5.90;66.00;;;;;;7362876;19;20156;-38
2022/01/24 16:05:30;;;;;;;3.35;2.30;;;5.80;66.40;;;;;;7359328;19;20619;-38
2022/01/24 16:08:01;;;;;;;4.45;2.70;;;5.60;67.00;;;;;;7369775;19;20131;-38
2022/01/24 16:10:34;;;;;;;5.03;2.55;;;5.60;67.30;;;;;;7361346;19;20716;-39
2022/01/24 16:13:03;;;;;;;4.65;2.80;;;5.50;67.60;;;;;;7372598;19;20123;-39
2022/01/24 16:15:35;;;;;;;4.40;2.55;;;5.50;67.60;;;;;;7373115;19;20128;-38
2022/01/24 16:18:12;;;;;;;4.03;2.70;;;5.40;68.00;;;;;;7379434;19;20128;-41
2022/01/24 16:21:01;;;;;;;5.47;3.60;;;5.30;67.90;;;;;;7376299;19;20128;-41
2022/01/24 16:23:45;;;;;;;4.85;3.80;;;5.10;68.90;;;;;;7375332;19;20453;-41